Terminal Aerodrome Forecast
Issued by NWS Lake Charles, LA

Home | Current Version | Previous Version | Text Only | Print | Product List | Glossary On
Versions: 1 2 3 4 5 6 7 8 9 10 11 12 13 14 15 16 17
000
FTUS44 KLCH 041439 AAA
TAFBPT
TAF AMD
KBPT 041439Z 0415/0512 16005KT P6SM VCSH SCT025
      TEMPO 0415/0417 4SM SHRA BKN020
     FM041700 17007KT P6SM VCTS SCT040CB
     FM050000 17004KT P6SM SKC=

USA.gov is the U.S. government's official web portal to all federal, state and local government web resources and services.